createdAt,value
2019-05-06T00:00:56.659Z,83.32
2019-05-06T00:01:54.044Z,82.80
2019-05-06T00:02:51.377Z,82.73
2019-05-06T00:03:51.363Z,82.63
2019-05-06T00:04:51.363Z,82.73
2019-05-06T00:05:51.362Z,83.25
2019-05-06T00:06:51.331Z,83.36
2019-05-06T00:07:51.323Z,83.46
2019-05-06T00:08:51.315Z,83.56
2019-05-06T00:09:51.300Z,83.56
2019-05-06T00:10:51.302Z,83.56
2019-05-06T00:11:51.295Z,83.81
2019-05-06T00:12:53.489Z,84.33
2019-05-06T00:13:51.256Z,84.33
2019-05-06T00:14:51.254Z,84.08
2019-05-06T00:15:51.235Z,84.01
2019-05-06T00:16:51.230Z,84.01
2019-05-06T00:17:51.230Z,83.87
2019-05-06T00:18:51.222Z,83.81
2019-05-06T00:19:51.205Z,83.50
2019-05-06T00:20:51.188Z,84.33
2019-05-06T00:21:51.185Z,84.53
2019-05-06T00:22:51.151Z,84.33
2019-05-06T00:23:51.157Z,84.64
2019-05-06T00:24:51.155Z,84.33
2019-05-06T00:25:51.117Z,84.95
2019-05-06T00:26:54.993Z,83.91
2019-05-06T00:27:54.303Z,83.87
2019-05-06T00:28:51.095Z,83.39
2019-05-06T00:29:51.109Z,83.46
2019-05-06T00:30:51.059Z,83.77
2019-05-06T00:31:51.062Z,83.39
2019-05-06T00:32:51.038Z,83.98
2019-05-06T00:33:51.036Z,83.70
2019-05-06T00:34:51.033Z,84.33
2019-05-06T00:35:51.029Z,84.43
2019-05-06T00:36:50.995Z,84.27
2019-05-06T00:37:51.006Z,84.53
2019-05-06T00:38:50.985Z,84.89
2019-05-06T00:39:50.973Z,84.99
2019-05-06T00:40:50.945Z,84.68
2019-05-06T00:41:50.952Z,84.68
2019-05-06T00:42:50.951Z,84.37
2019-05-06T00:43:50.914Z,84.74
2019-05-06T00:44:50.904Z,85.68
2019-05-06T00:45:50.896Z,85.51
2019-05-06T00:46:50.888Z,85.26
2019-05-06T00:47:50.899Z,85.82
2019-05-06T00:48:50.868Z,85.41
2019-05-06T00:49:50.848Z,85.41
2019-05-06T00:50:50.839Z,86.13
2019-05-06T00:51:50.841Z,85.51
2019-05-06T00:52:50.823Z,85.41
2019-05-06T00:53:50.825Z,86.03
2019-05-06T00:54:50.825Z,85.51
2019-05-06T00:55:50.789Z,85.41
2019-05-06T00:56:50.770Z,85.51
2019-05-06T00:57:50.767Z,85.41
2019-05-06T00:58:50.745Z,85.55
2019-05-06T00:59:50.761Z,85.44
2019-05-06T01:00:50.752Z,85.44
2019-05-06T01:01:50.750Z,85.44
2019-05-06T01:02:50.711Z,85.34
2019-05-06T01:03:50.692Z,85.24
2019-05-06T01:04:50.682Z,85.86
2019-05-06T01:05:50.688Z,85.86
2019-05-06T01:06:50.693Z,86.17
2019-05-06T01:07:50.669Z,86.42
2019-05-06T01:08:50.636Z,86.49
2019-05-06T01:09:50.626Z,87.21
2019-05-06T01:10:50.617Z,86.83
2019-05-06T01:11:50.631Z,87.42
2019-05-06T01:12:50.609Z,87.77
2019-05-06T01:13:50.587Z,87.77
2019-05-06T01:14:50.573Z,87.25
2019-05-06T01:15:50.578Z,87.77
2019-05-06T01:16:50.548Z,87.94
2019-05-06T01:17:50.552Z,88.50
2019-05-06T01:18:50.529Z,88.50
2019-05-06T01:19:50.514Z,88.71
2019-05-06T01:20:50.506Z,89.43
2019-05-06T01:21:50.524Z,89.75
2019-05-06T01:22:50.483Z,89.43
2019-05-06T01:23:50.496Z,89.64
2019-05-06T01:24:50.459Z,89.43
2019-05-06T01:25:50.460Z,89.75
2019-05-06T01:26:50.441Z,89.75
2019-05-06T01:27:50.423Z,89.75
2019-05-06T01:28:50.417Z,89.64
2019-05-06T01:29:50.418Z,89.64
2019-05-06T01:30:50.401Z,90.06
2019-05-06T01:31:50.405Z,89.95
2019-05-06T01:32:50.370Z,89.75
2019-05-06T01:33:50.358Z,89.95
2019-05-06T01:34:50.343Z,90.47
2019-05-06T01:35:50.376Z,90.37
2019-05-06T01:36:50.325Z,90.47
2019-05-06T01:37:50.321Z,90.16
2019-05-06T01:38:50.301Z,89.85
2019-05-06T01:39:50.298Z,90.06
2019-05-06T01:40:50.279Z,90.26
2019-05-06T01:41:50.286Z,90.06
2019-05-06T01:42:50.256Z,90.02
2019-05-06T01:43:50.248Z,90.26
2019-05-06T01:44:50.252Z,89.85
2019-05-06T01:45:50.237Z,89.75
2019-05-06T01:46:50.222Z,89.75
2019-05-06T01:47:50.220Z,89.95
2019-05-06T01:48:50.188Z,90.06
2019-05-06T01:49:50.194Z,90.26
2019-05-06T01:50:50.187Z,90.06
2019-05-06T01:51:50.156Z,90.26
2019-05-06T01:52:50.150Z,90.52
2019-05-06T01:53:50.165Z,89.95
2019-05-06T01:54:50.135Z,90.06
2019-05-06T01:55:50.118Z,89.69
2019-05-06T01:56:50.098Z,90.00
2019-05-06T01:57:50.110Z,90.00
2019-05-06T01:58:50.077Z,90.20
2019-05-06T01:59:50.100Z,90.41
2019-05-06T02:00:50.066Z,90.52
2019-05-06T02:01:58.189Z,90.41
2019-05-06T02:02:51.037Z,91.04
2019-05-06T02:03:50.050Z,91.56
2019-05-06T02:04:50.036Z,90.72
2019-05-06T02:05:50.021Z,91.66
2019-05-06T02:06:49.988Z,91.35
2019-05-06T02:07:49.976Z,91.66
2019-05-06T02:08:50.009Z,92.29
2019-05-06T02:09:49.979Z,91.97
2019-05-06T02:10:49.954Z,92.55
2019-05-06T02:11:49.987Z,92.55
2019-05-06T02:12:49.933Z,92.97
2019-05-06T02:13:49.918Z,92.76
2019-05-06T02:14:49.924Z,92.66
2019-05-06T02:15:49.888Z,92.66
2019-05-06T02:16:49.878Z,92.66
2019-05-06T02:17:49.885Z,92.66
2019-05-06T02:18:49.858Z,92.45
2019-05-06T02:19:49.854Z,92.66
2019-05-06T02:20:49.836Z,92.55
2019-05-06T02:21:49.823Z,92.66
2019-05-06T02:22:49.818Z,92.55
2019-05-06T02:23:49.823Z,92.41
2019-05-06T02:24:49.803Z,92.35
2019-05-06T02:25:49.776Z,91.58
2019-05-06T02:26:49.775Z,92.10
2019-05-06T02:27:49.770Z,91.89
2019-05-06T02:28:49.773Z,91.68
2019-05-06T02:29:49.778Z,91.58
2019-05-06T02:30:49.728Z,91.78
2019-05-06T02:31:49.714Z,91.16
2019-05-06T02:32:49.738Z,91.68
2019-05-06T02:33:49.707Z,91.06
2019-05-06T02:34:49.680Z,91.06
2019-05-06T02:35:49.690Z,91.37
2019-05-06T02:36:49.652Z,91.58
2019-05-06T02:37:49.645Z,91.47
2019-05-06T02:38:52.348Z,90.85
2019-05-06T02:39:53.414Z,91.43
2019-05-06T02:40:49.609Z,91.68
2019-05-06T02:41:49.628Z,91.78
2019-05-06T02:42:49.618Z,91.16
2019-05-06T02:43:49.581Z,91.58
2019-05-06T02:44:49.562Z,91.06
2019-05-06T02:45:52.873Z,91.16
2019-05-06T02:46:49.554Z,91.47
2019-05-06T02:47:49.547Z,91.37
2019-05-06T02:48:49.535Z,91.27
2019-05-06T02:49:49.521Z,91.47
2019-05-06T02:50:49.519Z,91.68
2019-05-06T02:51:49.485Z,91.78
2019-05-06T02:52:49.481Z,91.68
2019-05-06T02:53:49.480Z,91.68
2019-05-06T02:54:49.450Z,91.78
2019-05-06T02:55:49.452Z,91.53
2019-05-06T02:56:49.433Z,92.30
2019-05-06T02:57:49.415Z,91.53
2019-05-06T02:58:49.410Z,92.10
2019-05-06T02:59:49.434Z,91.68
2019-05-06T03:00:49.406Z,91.89
2019-05-06T03:01:49.372Z,91.78
2019-05-06T03:02:49.390Z,91.89
2019-05-06T03:03:49.355Z,92.05
2019-05-06T03:04:49.349Z,91.85
2019-05-06T03:05:49.361Z,91.68
2019-05-06T03:06:49.336Z,91.95
2019-05-06T03:07:49.305Z,91.95
2019-05-06T03:08:49.297Z,92.20
2019-05-06T03:09:49.280Z,92.10
2019-05-06T03:10:49.281Z,92.26
2019-05-06T03:11:49.276Z,92.47
2019-05-06T03:12:49.245Z,92.51
2019-05-06T03:13:49.236Z,92.93
2019-05-06T03:14:49.230Z,93.24
2019-05-06T03:15:49.221Z,93.24
2019-05-06T03:16:49.218Z,93.30
2019-05-06T03:17:49.209Z,92.78
2019-05-06T03:18:49.179Z,92.30
2019-05-06T03:19:49.211Z,93.35
2019-05-06T03:20:49.161Z,92.41
2019-05-06T03:21:49.149Z,93.66
2019-05-06T03:22:49.137Z,93.72
2019-05-06T03:23:49.144Z,93.03
2019-05-06T03:24:49.120Z,92.93
2019-05-06T03:25:49.117Z,92.93
2019-05-06T03:26:49.090Z,92.36
2019-05-06T03:27:49.091Z,92.93
2019-05-06T03:28:49.072Z,92.41
2019-05-06T03:29:49.103Z,93.14
2019-05-06T03:30:49.085Z,93.24
2019-05-06T03:31:49.031Z,93.35
2019-05-06T03:33:28.120Z,93.35
2019-05-06T03:34:09.013Z,93.03
2019-05-06T03:35:09.013Z,93.55
2019-05-06T03:36:00.521Z,93.35
2019-05-06T03:36:55.483Z,93.03
2019-05-06T03:37:53.038Z,93.14
2019-05-06T03:38:48.969Z,93.45
2019-05-06T03:39:48.959Z,93.55
2019-05-06T03:40:48.949Z,93.55
2019-05-06T03:41:48.934Z,93.24
2019-05-06T03:42:48.917Z,93.35
2019-05-06T03:43:48.899Z,93.76
2019-05-06T03:44:48.897Z,93.66
2019-05-06T03:45:48.878Z,93.76
2019-05-06T03:46:48.898Z,93.66
2019-05-06T03:47:48.891Z,93.45
2019-05-06T03:48:48.841Z,93.66
2019-05-06T03:49:50.167Z,93.76
2019-05-06T03:50:48.819Z,93.55
2019-05-06T03:51:48.814Z,93.76
2019-05-06T03:52:48.825Z,93.66
2019-05-06T03:53:48.786Z,93.87
2019-05-06T03:54:48.780Z,93.87
2019-05-06T03:55:48.762Z,93.87
2019-05-06T03:56:48.758Z,93.87
2019-05-06T03:57:48.741Z,93.66
2019-05-06T03:58:48.767Z,94.38
2019-05-06T03:59:48.717Z,94.38
2019-05-06T04:00:48.713Z,94.49
2019-05-06T04:01:48.723Z,94.38
2019-05-06T04:02:48.684Z,94.03
2019-05-06T04:03:55.865Z,94.03
2019-05-06T04:04:53.454Z,94.24
2019-05-06T04:05:49.648Z,94.55
2019-05-06T04:06:48.643Z,94.24
2019-05-06T04:07:48.631Z,94.24
2019-05-06T04:08:48.632Z,94.55
2019-05-06T04:09:48.631Z,94.45
2019-05-06T04:10:48.617Z,94.45
2019-05-06T04:11:48.585Z,94.55
2019-05-06T04:12:48.577Z,94.76
2019-05-06T04:13:48.595Z,95.07
2019-05-06T04:14:48.547Z,95.28
2019-05-06T04:15:48.537Z,95.17
2019-05-06T04:16:48.556Z,95.07
2019-05-06T04:17:48.520Z,94.96
2019-05-06T04:18:48.501Z,94.55
2019-05-06T04:19:48.497Z,94.45
2019-05-06T04:20:48.515Z,94.55
2019-05-06T04:21:48.492Z,94.45
2019-05-06T04:22:48.474Z,94.55
2019-05-06T04:23:48.452Z,94.55
2019-05-06T04:24:48.457Z,94.13
2019-05-06T04:25:48.440Z,93.82
2019-05-06T04:26:48.441Z,94.09
2019-05-06T04:27:48.404Z,93.82
2019-05-06T04:28:48.456Z,94.30
2019-05-06T04:29:48.384Z,94.09
2019-05-06T04:30:48.375Z,94.24
2019-05-06T04:31:48.365Z,94.24
2019-05-06T04:32:48.373Z,94.20
2019-05-06T04:34:05.227Z,93.99
2019-05-06T04:34:49.397Z,94.09
2019-05-06T04:35:48.337Z,94.30
2019-05-06T04:36:48.299Z,94.09
2019-05-06T04:37:48.292Z,94.36
2019-05-06T04:38:48.300Z,94.30
2019-05-06T04:39:48.275Z,94.46
2019-05-06T04:40:48.279Z,93.63
2019-05-06T04:41:48.280Z,93.63
2019-05-06T04:42:48.235Z,93.95
2019-05-06T04:43:48.227Z,93.74
2019-05-06T04:44:48.213Z,93.63
2019-05-06T04:45:48.206Z,93.43
2019-05-06T04:46:48.222Z,93.32
2019-05-06T04:47:48.180Z,92.80
2019-05-06T04:48:48.233Z,92.18
2019-05-06T04:49:48.176Z,93.22
2019-05-06T04:50:48.149Z,92.90
2019-05-06T04:51:48.133Z,92.49
2019-05-06T04:52:48.182Z,92.80
2019-05-06T04:53:48.131Z,92.69
2019-05-06T04:54:48.100Z,92.69
2019-05-06T04:55:48.097Z,92.69
2019-05-06T04:56:48.081Z,92.24
2019-05-06T04:57:48.067Z,92.35
2019-05-06T04:58:48.085Z,93.18
2019-05-06T04:59:48.054Z,92.82
2019-05-06T05:00:48.042Z,93.13
2019-05-06T05:01:48.023Z,93.02
2019-05-06T05:02:48.012Z,92.88
2019-05-06T05:03:48.046Z,92.88
2019-05-06T05:04:48.002Z,91.95
2019-05-06T05:05:47.993Z,92.57
2019-05-06T05:06:47.969Z,92.16
2019-05-06T05:07:47.964Z,91.49
2019-05-06T05:08:47.947Z,91.49
2019-05-06T05:09:47.945Z,91.08
2019-05-06T05:10:47.936Z,91.08
2019-05-06T05:11:47.907Z,90.77
2019-05-06T05:12:47.896Z,90.77
2019-05-06T05:13:47.890Z,90.14
2019-05-06T05:14:47.884Z,90.04
2019-05-06T05:15:47.862Z,90.66
2019-05-06T05:16:47.877Z,89.73
2019-05-06T05:17:47.845Z,89.38
2019-05-06T05:18:47.833Z,89.44
2019-05-06T05:19:47.842Z,89.44
2019-05-06T05:20:47.811Z,89.03
2019-05-06T05:21:47.796Z,88.26
2019-05-06T05:22:47.800Z,88.36
2019-05-06T05:23:47.778Z,87.81
2019-05-06T05:24:47.765Z,86.77
2019-05-06T05:25:47.751Z,87.23
2019-05-06T05:26:47.746Z,87.12
2019-05-06T05:27:47.733Z,87.74
2019-05-06T05:28:47.743Z,87.70
2019-05-06T05:29:47.762Z,87.70
2019-05-06T05:30:47.699Z,86.77
2019-05-06T05:31:47.686Z,85.88
2019-05-06T05:32:47.676Z,86.09
2019-05-06T05:33:47.670Z,86.29
2019-05-06T05:34:47.677Z,86.81
2019-05-06T05:35:47.689Z,87.29
2019-05-06T05:36:47.639Z,86.81
2019-05-06T05:37:47.623Z,86.77
2019-05-06T05:38:47.622Z,86.88
2019-05-06T05:39:47.601Z,87.49
2019-05-06T05:40:47.611Z,86.98
2019-05-06T05:41:47.587Z,87.33
2019-05-06T05:42:47.576Z,87.29
2019-05-06T05:43:47.565Z,87.18
2019-05-06T05:44:47.567Z,87.60
2019-05-06T05:45:47.530Z,87.43
2019-05-06T05:46:47.550Z,87.81
2019-05-06T05:47:47.519Z,87.29
2019-05-06T05:48:47.504Z,87.81
2019-05-06T05:49:47.487Z,87.70
2019-05-06T05:50:47.479Z,87.85
2019-05-06T05:51:47.471Z,88.32
2019-05-06T05:52:47.475Z,87.70
2019-05-06T05:53:47.446Z,86.77
2019-05-06T05:54:47.430Z,87.18
2019-05-06T05:55:47.419Z,87.29
2019-05-06T05:56:47.418Z,86.67
2019-05-06T05:57:47.400Z,87.18
2019-05-06T05:58:47.401Z,86.88
2019-05-06T05:59:47.377Z,87.18
2019-05-06T06:00:47.368Z,86.57
2019-05-06T06:01:47.389Z,85.91
2019-05-06T06:02:47.346Z,85.70
2019-05-06T06:03:47.339Z,86.94
2019-05-06T06:04:56.460Z,86.21
2019-05-06T06:05:48.308Z,85.80
2019-05-06T06:06:47.303Z,85.91
2019-05-06T06:07:47.293Z,85.80
2019-05-06T06:08:47.279Z,86.73
2019-05-06T06:09:47.284Z,86.69
2019-05-06T06:10:47.281Z,86.18
2019-05-06T06:11:47.243Z,86.69
2019-05-06T06:12:47.232Z,87.10
2019-05-06T06:13:47.222Z,85.76
2019-05-06T06:14:47.474Z,85.35
2019-05-06T06:15:47.205Z,84.52
2019-05-06T06:16:47.208Z,84.00
2019-05-06T06:17:47.188Z,83.49
2019-05-06T06:18:47.166Z,83.28
2019-05-06T06:19:47.159Z,84.31
2019-05-06T06:20:47.151Z,84.42
2019-05-06T06:21:47.133Z,83.97
2019-05-06T06:22:47.139Z,84.07
2019-05-06T06:23:47.115Z,84.17
2019-05-06T06:24:47.109Z,84.07
2019-05-06T06:25:47.094Z,84.55
2019-05-06T06:26:47.096Z,83.20
2019-05-06T06:27:47.079Z,83.31
2019-05-06T06:28:47.092Z,82.69
2019-05-06T06:29:47.049Z,81.24
2019-05-06T06:30:47.041Z,81.04
2019-05-06T06:31:47.034Z,81.41
2019-05-06T06:32:47.042Z,81.93
2019-05-06T06:33:47.009Z,81.00
2019-05-06T06:34:47.015Z,81.51
2019-05-06T06:35:46.993Z,81.82
2019-05-06T06:36:46.983Z,81.99
2019-05-06T06:37:46.978Z,81.62
2019-05-06T06:38:46.993Z,80.76
2019-05-06T06:39:46.950Z,81.07
2019-05-06T06:40:46.960Z,81.17
2019-05-06T06:41:46.951Z,80.28
2019-05-06T06:42:46.932Z,79.21
2019-05-06T06:43:46.917Z,80.38
2019-05-06T06:44:46.901Z,79.76
2019-05-06T06:45:46.888Z,79.93
2019-05-06T06:46:46.956Z,80.76
2019-05-06T06:47:46.879Z,80.86
2019-05-06T06:48:46.855Z,80.62
2019-05-06T06:49:46.841Z,80.72
2019-05-06T06:50:46.833Z,78.45
2019-05-06T06:51:46.849Z,78.14
2019-05-06T06:52:46.831Z,77.52
2019-05-06T06:53:46.796Z,78.41
2019-05-06T06:54:46.785Z,79.10
2019-05-06T06:55:46.783Z,78.89
2019-05-06T06:56:46.763Z,77.97
2019-05-06T06:57:46.755Z,77.55
2019-05-06T06:58:46.766Z,76.73
2019-05-06T06:59:46.730Z,77.25
2019-05-06T07:00:46.722Z,75.90
2019-05-06T07:01:46.736Z,75.81
2019-05-06T07:02:46.695Z,75.81
2019-05-06T07:03:46.702Z,76.21
2019-05-06T07:04:46.698Z,76.63
2019-05-06T07:05:46.661Z,76.42
2019-05-06T07:06:46.657Z,76.32
2019-05-06T07:07:47.764Z,77.04
2019-05-06T07:08:46.627Z,76.46
2019-05-06T07:09:46.620Z,75.01
2019-05-06T07:10:46.628Z,75.56
2019-05-06T07:11:46.595Z,75.46
2019-05-06T07:12:46.583Z,75.90
2019-05-06T07:13:46.583Z,72.82
2019-05-06T07:14:46.568Z,64.96
2019-05-06T07:15:46.554Z,64.31
2019-05-06T07:16:46.582Z,63.23
2019-05-06T07:17:46.522Z,60.82
2019-05-06T07:18:46.516Z,60.69
2019-05-06T07:19:46.499Z,60.92
2019-05-06T07:20:46.489Z,59.62
2019-05-06T07:21:46.479Z,61.18
2019-05-06T07:22:46.482Z,60.97
2019-05-06T07:23:46.452Z,62.98
2019-05-06T07:24:46.443Z,62.98
2019-05-06T07:25:46.433Z,62.98
2019-05-06T07:26:46.418Z,62.70
2019-05-06T07:27:46.407Z,64.06
2019-05-06T07:28:46.412Z,65.01
2019-05-06T07:29:48.149Z,66.85
2019-05-06T07:30:46.378Z,64.87
2019-05-06T07:31:46.362Z,65.69
2019-05-06T07:32:46.349Z,65.49
2019-05-06T07:33:46.342Z,64.74
2019-05-06T07:34:46.350Z,65.59
2019-05-06T07:35:46.316Z,64.33
2019-05-06T07:36:46.309Z,64.74
2019-05-06T07:37:46.323Z,64.06
2019-05-06T07:38:46.283Z,64.36
2019-05-06T07:39:46.284Z,65.65
2019-05-06T07:40:46.281Z,66.98
2019-05-06T07:41:46.346Z,66.88
2019-05-06T07:42:46.261Z,65.58
2019-05-06T07:43:46.227Z,67.43
2019-05-06T07:44:46.214Z,66.37
2019-05-06T07:45:46.205Z,64.38
2019-05-06T07:46:46.238Z,64.35
2019-05-06T07:47:46.179Z,66.40
2019-05-06T07:48:46.169Z,66.91
2019-05-06T07:49:46.164Z,66.81
2019-05-06T07:50:48.931Z,65.92
2019-05-06T07:51:46.137Z,67.08
2019-05-06T07:52:46.157Z,68.92
2019-05-06T07:53:46.118Z,68.41
2019-05-06T07:54:46.101Z,66.05
2019-05-06T07:55:46.097Z,67.38
2019-05-06T07:56:46.087Z,67.08
2019-05-06T07:57:46.068Z,66.67
2019-05-06T07:58:46.075Z,67.49
2019-05-06T07:59:46.071Z,67.72
2019-05-06T08:00:46.034Z,67.62
2019-05-06T08:01:46.038Z,67.21
2019-05-06T08:02:46.018Z,66.87
2019-05-06T08:03:46.000Z,65.57
2019-05-06T08:04:46.026Z,67.08
2019-05-06T08:05:55.774Z,67.21
2019-05-06T08:06:46.966Z,67.58
2019-05-06T08:07:45.957Z,68.51
2019-05-06T08:08:45.962Z,67.48
2019-05-06T08:09:45.933Z,67.48
2019-05-06T08:10:45.938Z,68.51
2019-05-06T08:11:45.910Z,69.19
2019-05-06T08:12:45.906Z,68.68
2019-05-06T08:13:45.887Z,69.40
2019-05-06T08:14:45.879Z,69.70
2019-05-06T08:15:45.867Z,69.26
2019-05-06T08:16:45.878Z,68.51
2019-05-06T08:17:45.845Z,69.06
2019-05-06T08:18:45.830Z,67.49
2019-05-06T08:19:45.820Z,69.23
2019-05-06T08:20:45.814Z,65.03
2019-05-06T08:21:45.804Z,64.85
2019-05-06T08:22:45.810Z,67.55
2019-05-06T08:23:45.776Z,66.79
2019-05-06T08:24:45.762Z,67.10
2019-05-06T08:25:45.750Z,66.76
2019-05-06T08:26:45.739Z,68.51
2019-05-06T08:27:45.738Z,68.81
2019-05-06T08:28:45.733Z,68.81
2019-05-06T08:29:45.707Z,68.10
2019-05-06T08:30:45.697Z,69.12
2019-05-06T08:31:45.681Z,68.30
2019-05-06T08:32:45.676Z,67.10
2019-05-06T08:33:45.657Z,68.61
2019-05-06T08:34:45.680Z,68.61
2019-05-06T08:35:45.639Z,67.99
2019-05-06T08:36:45.623Z,68.57
2019-05-06T08:37:45.612Z,68.48
2019-05-06T08:38:45.605Z,67.96
2019-05-06T08:39:46.175Z,67.14
2019-05-06T08:40:45.602Z,69.37
2019-05-06T08:41:45.570Z,68.65
2019-05-06T08:42:45.554Z,67.21
2019-05-06T08:43:45.544Z,67.41
2019-05-06T08:44:45.533Z,66.28
2019-05-06T08:45:45.523Z,65.70
2019-05-06T08:46:45.528Z,65.70
2019-05-06T08:47:45.501Z,67.03
2019-05-06T08:48:45.485Z,64.16
2019-05-06T08:49:45.472Z,66.66
2019-05-06T08:50:45.465Z,65.94
2019-05-06T08:51:45.448Z,64.60
2019-05-06T08:52:45.473Z,64.63
2019-05-06T08:53:45.424Z,65.05
2019-05-06T08:54:45.427Z,66.10
2019-05-06T08:55:45.422Z,67.13
2019-05-06T08:56:45.398Z,66.93
2019-05-06T08:57:45.381Z,67.16
2019-05-06T08:58:45.437Z,67.78
2019-05-06T08:59:45.353Z,68.60
2019-05-06T09:00:45.348Z,67.36
2019-05-06T09:01:45.337Z,69.39
2019-05-06T09:02:46.211Z,69.49
2019-05-06T09:03:45.322Z,68.26
2019-05-06T09:04:45.344Z,69.80
2019-05-06T09:05:45.285Z,68.77
2019-05-06T09:06:45.315Z,67.50
2019-05-06T09:07:45.256Z,68.43
2019-05-06T09:08:45.252Z,69.46
2019-05-06T09:09:45.236Z,69.15
2019-05-06T09:10:45.245Z,70.52
2019-05-06T09:11:45.213Z,70.93
2019-05-06T09:12:45.198Z,71.55
2019-05-06T09:13:45.184Z,73.09
2019-05-06T09:14:45.178Z,72.37
2019-05-06T09:15:45.162Z,72.68
2019-05-06T09:16:45.171Z,72.51
2019-05-06T09:17:45.157Z,72.81
2019-05-06T09:18:45.128Z,72.61
2019-05-06T09:19:45.129Z,71.48
2019-05-06T09:20:45.109Z,71.48
2019-05-06T09:21:46.324Z,71.69
2019-05-06T09:22:45.107Z,72.81
2019-05-06T09:23:45.086Z,71.89
2019-05-06T09:24:45.062Z,71.96
2019-05-06T09:25:45.061Z,71.24
2019-05-06T09:26:45.041Z,71.10
2019-05-06T09:27:45.027Z,69.87
2019-05-06T09:28:45.038Z,71.48
2019-05-06T09:29:45.005Z,69.09
2019-05-06T09:30:44.999Z,69.74
2019-05-06T09:31:44.983Z,67.35
2019-05-06T09:32:44.972Z,68.48
2019-05-06T09:33:44.977Z,67.03
2019-05-06T09:34:44.972Z,66.67
2019-05-06T09:35:45.058Z,66.16
2019-05-06T09:36:51.724Z,65.71
2019-05-06T09:37:45.911Z,64.35
2019-05-06T09:38:44.930Z,63.76
2019-05-06T09:39:44.884Z,64.69
2019-05-06T09:40:44.890Z,63.46
2019-05-06T09:41:47.244Z,65.30
2019-05-06T09:42:44.851Z,64.04
2019-05-06T09:43:44.842Z,65.01
2019-05-06T09:44:44.850Z,62.42
2019-05-06T09:45:44.816Z,61.85
2019-05-06T09:46:44.827Z,62.80
2019-05-06T09:47:44.795Z,62.80
2019-05-06T09:48:44.783Z,62.70
2019-05-06T09:49:44.770Z,61.65
2019-05-06T09:50:46.316Z,60.38
2019-05-06T09:51:44.748Z,56.42
2019-05-06T09:52:44.761Z,55.71
2019-05-06T09:53:44.743Z,54.90
2019-05-06T09:54:44.721Z,55.99
2019-05-06T09:55:44.703Z,53.78
2019-05-06T09:56:44.696Z,50.35
2019-05-06T09:57:44.687Z,50.18
2019-05-06T09:58:44.696Z,50.46
2019-05-06T09:59:44.664Z,51.14
2019-05-06T10:00:44.650Z,51.60
2019-05-06T10:01:44.638Z,46.62
2019-05-06T10:02:44.628Z,47.19
2019-05-06T10:03:44.617Z,43.91
2019-05-06T10:04:44.631Z,47.95
2019-05-06T10:05:44.603Z,49.11
2019-05-06T10:06:56.340Z,47.98
2019-05-06T10:07:45.571Z,46.38
2019-05-06T10:08:44.585Z,47.79
2019-05-06T10:09:44.558Z,47.33
2019-05-06T10:10:56.091Z,48.97
2019-05-06T10:11:45.526Z,50.34
2019-05-06T10:12:44.517Z,52.02
2019-05-06T10:13:44.509Z,51.84
2019-05-06T10:14:44.495Z,52.53
2019-05-06T10:15:44.484Z,53.47
2019-05-06T10:16:44.502Z,51.79
2019-05-06T10:17:44.466Z,50.49
2019-05-06T10:18:44.453Z,50.44
2019-05-06T10:19:44.443Z,54.51
2019-05-06T10:20:44.430Z,54.64
2019-05-06T10:21:44.423Z,55.41
2019-05-06T10:22:44.437Z,53.24
2019-05-06T10:23:44.399Z,53.75
2019-05-06T10:24:44.388Z,52.55
2019-05-06T10:25:44.380Z,54.82
2019-05-06T10:26:44.364Z,53.50
2019-05-06T10:27:44.356Z,51.23
2019-05-06T10:28:44.362Z,50.59
2019-05-06T10:29:44.345Z,48.54
2019-05-06T10:30:44.320Z,49.26
2019-05-06T10:31:44.315Z,46.53
2019-05-06T10:32:44.306Z,49.75
2019-05-06T10:33:44.299Z,49.08
2019-05-06T10:34:44.296Z,48.88
2019-05-06T10:35:44.264Z,49.72
2019-05-06T10:36:44.254Z,49.24
2019-05-06T10:37:44.253Z,49.39
2019-05-06T10:38:44.252Z,50.48
2019-05-06T10:39:44.221Z,49.22
2019-05-06T10:41:00.064Z,50.80
2019-05-06T10:41:45.204Z,51.86
2019-05-06T10:42:44.190Z,52.42
2019-05-06T10:43:44.179Z,53.59
2019-05-06T10:44:44.167Z,55.87
2019-05-06T10:45:44.163Z,55.18
2019-05-06T10:46:44.170Z,58.58
2019-05-06T10:47:44.137Z,58.20
2019-05-06T10:48:44.125Z,57.92
2019-05-06T10:49:44.118Z,60.81
2019-05-06T10:50:44.101Z,59.71
2019-05-06T10:51:44.096Z,59.97
2019-05-06T10:52:44.099Z,61.02
2019-05-06T10:53:44.067Z,61.46
2019-05-06T10:54:44.057Z,63.90
2019-05-06T10:55:44.056Z,64.95
2019-05-06T10:56:53.788Z,65.67
2019-05-06T10:57:45.042Z,67.21
2019-05-06T10:58:44.187Z,65.67
2019-05-06T10:59:43.999Z,67.35
2019-05-06T11:00:43.992Z,66.63
2019-05-06T11:01:43.988Z,68.19
2019-05-06T11:02:43.968Z,69.53
2019-05-06T11:03:43.984Z,68.99
2019-05-06T11:04:43.943Z,69.19
2019-05-06T11:05:43.935Z,67.38
2019-05-06T11:06:43.933Z,67.71
2019-05-06T11:07:43.913Z,68.85
2019-05-06T11:08:43.897Z,67.61
2019-05-06T11:09:43.914Z,68.61
2019-05-06T11:10:45.474Z,67.61
2019-05-06T11:11:43.868Z,67.61
2019-05-06T11:12:43.863Z,67.20
2019-05-06T11:13:43.843Z,66.48
2019-05-06T11:14:43.852Z,67.51
2019-05-06T11:15:43.832Z,67.61
2019-05-06T11:16:43.837Z,67.71
2019-05-06T11:17:43.832Z,65.45
2019-05-06T11:18:43.785Z,68.23
2019-05-06T11:19:43.775Z,67.07
2019-05-06T11:20:44.246Z,65.94
2019-05-06T11:21:45.116Z,65.73
2019-05-06T11:22:43.836Z,65.83
2019-05-06T11:23:43.730Z,64.40
2019-05-06T11:24:43.713Z,65.73
2019-05-06T11:25:43.702Z,65.60
2019-05-06T11:26:43.712Z,67.35
2019-05-06T11:27:45.117Z,63.75
2019-05-06T11:28:43.663Z,65.91
2019-05-06T11:29:43.688Z,64.67
2019-05-06T11:30:43.639Z,65.19
2019-05-06T11:31:43.732Z,64.06
2019-05-06T11:32:44.386Z,65.67
2019-05-06T11:33:43.626Z,65.47
2019-05-06T11:34:43.595Z,64.31
2019-05-06T11:35:43.597Z,63.59
2019-05-06T11:36:43.573Z,63.90
2019-05-06T11:37:49.788Z,64.48
2019-05-06T11:38:44.567Z,63.79
2019-05-06T11:39:43.536Z,63.79
2019-05-06T11:40:43.524Z,63.49
2019-05-06T11:42:01.063Z,64.20
2019-05-06T11:42:44.514Z,64.75
2019-05-06T11:43:43.500Z,65.06
2019-05-06T11:44:44.204Z,65.98
2019-05-06T11:45:43.463Z,66.01
2019-05-06T11:46:43.452Z,65.80
2019-05-06T11:47:43.459Z,66.96
2019-05-06T11:48:43.428Z,68.30
2019-05-06T11:49:44.145Z,69.36
2019-05-06T11:50:43.428Z,71.75
2019-05-06T11:51:43.713Z,73.81
2019-05-06T11:52:43.703Z,74.33
2019-05-06T11:53:43.368Z,77.14
2019-05-06T11:54:43.359Z,77.79
2019-05-06T11:55:43.351Z,80.09
2019-05-06T11:56:51.324Z,80.75
2019-05-06T11:57:44.581Z,81.37
2019-05-06T11:58:43.321Z,81.37
2019-05-06T11:59:43.540Z,82.81
2019-05-06T12:00:44.538Z,83.22
2019-05-06T12:01:43.512Z,81.20
2019-05-06T12:02:48.111Z,83.05
2019-05-06T12:03:44.255Z,82.74
2019-05-06T12:04:43.239Z,82.64
2019-05-06T12:05:43.241Z,83.05
2019-05-06T12:06:43.222Z,82.64
2019-05-06T12:07:48.088Z,80.75
2019-05-06T12:08:44.219Z,78.41
2019-05-06T12:09:43.187Z,78.62
2019-05-06T12:10:43.186Z,79.65
2019-05-06T12:11:43.439Z,80.02
2019-05-06T12:12:43.151Z,80.23
2019-05-06T12:13:43.144Z,81.37
2019-05-06T12:14:43.160Z,81.43
2019-05-06T12:15:43.118Z,81.81
2019-05-06T12:16:43.116Z,79.64
2019-05-06T12:17:43.093Z,76.97
2019-05-06T12:18:43.086Z,78.89
2019-05-06T12:19:43.388Z,80.12
2019-05-06T12:20:43.077Z,78.03
2019-05-06T12:21:43.270Z,79.05
2019-05-06T12:22:43.043Z,78.75
2019-05-06T12:23:44.938Z,79.74
2019-05-06T12:24:43.238Z,80.32
2019-05-06T12:25:45.328Z,79.60
2019-05-06T12:26:43.156Z,79.05
2019-05-06T12:27:43.212Z,78.12
2019-05-06T12:28:43.658Z,79.36
2019-05-06T12:29:43.013Z,79.56
2019-05-06T12:30:42.947Z,77.17
2019-05-06T12:31:42.939Z,78.50
2019-05-06T12:32:43.468Z,79.32
2019-05-06T12:33:42.916Z,75.73
2019-05-06T12:34:43.081Z,76.82
2019-05-06T12:35:42.923Z,77.95
2019-05-06T12:36:42.941Z,79.69
2019-05-06T12:37:44.071Z,78.05
2019-05-06T12:38:43.286Z,77.95
2019-05-06T12:39:43.249Z,77.20
2019-05-06T12:40:43.017Z,75.24
2019-05-06T12:41:43.197Z,75.73
2019-05-06T12:42:43.314Z,76.44
2019-05-06T12:43:43.153Z,76.81
2019-05-06T12:44:42.803Z,77.12
2019-05-06T12:45:43.085Z,75.65
2019-05-06T12:46:43.101Z,73.61
2019-05-06T12:47:42.784Z,75.35
2019-05-06T12:48:44.075Z,74.49
2019-05-06T12:49:42.833Z,74.90
2019-05-06T12:50:43.184Z,75.38
2019-05-06T12:51:43.343Z,72.41
2019-05-06T12:52:44.196Z,69.45